Time;durP1;ratioP1;P1;durP2;ratioP2;P2;SDS_P1;SDS_P2;PMS_P1;PMS_P2;Temp;Humidity;BMP_temperature;BMP_pressure;BME280_temperature;BME280_humidity;BME280_pressure;Samples;Min_cycle;Max_cycle;Signal;HPM_P1;HPM_P2
2021/11/09 00:02:21;;;;;;;26.42;16.15;;;;;;;4.69;99.87;101203.41;5128968;27;20169;-66
2021/11/09 00:04:52;;;;;;;23.48;15.73;;;;;;;4.67;99.93;101202.63;5128982;27;20472;-66
2021/11/09 00:07:25;;;;;;;28.20;15.63;;;;;;;4.68;100.00;101207.03;5127810;27;20031;-66
2021/11/09 00:09:59;;;;;;;26.23;14.95;;;;;;;4.56;99.92;101192.53;5132157;27;20050;-67
2021/11/09 00:12:31;;;;;;;24.50;14.60;;;;;;;4.64;100.00;101208.94;5128440;27;20027;-67
2021/11/09 00:14:59;;;;;;;29.55;16.73;;;;;;;4.66;100.00;101225.69;5131226;27;20046;-67
2021/11/09 00:17:26;;;;;;;26.85;14.63;;;;;;;4.60;99.51;101214.50;5132901;27;20072;-68
2021/11/09 00:19:53;;;;;;;27.50;15.13;;;;;;;4.61;99.11;101232.13;5133575;27;20494;-67
2021/11/09 00:22:20;;;;;;;23.05;14.23;;;;;;;4.59;98.98;101221.59;5133794;27;20019;-67
2021/11/09 00:24:46;;;;;;;26.17;15.23;;;;;;;4.57;98.63;101225.25;5133988;27;20042;-66
2021/11/09 00:27:11;;;;;;;26.90;14.73;;;;;;;4.51;98.55;101212.28;5130035;27;20030;-67
2021/11/09 00:29:38;;;;;;;24.52;15.57;;;;;;;4.53;98.30;101226.34;5133482;27;20023;-68
2021/11/09 00:32:05;;;;;;;21.65;14.45;;;;;;;4.50;98.49;101226.50;5133980;27;20019;-67
2021/11/09 00:34:30;;;;;;;22.40;14.50;;;;;;;4.53;98.48;101219.25;5133562;27;20430;-67
2021/11/09 00:36:57;;;;;;;27.33;15.07;;;;;;;4.47;98.62;101211.59;5133925;27;20054;-66
2021/11/09 00:39:23;;;;;;;26.08;15.13;;;;;;;4.51;98.70;101231.75;5133488;27;20164;-68
2021/11/09 00:41:48;;;;;;;22.25;14.50;;;;;;;4.48;99.28;101218.59;5133930;27;20440;-67
2021/11/09 00:44:14;;;;;;;25.88;14.57;;;;;;;4.52;99.55;101230.78;5133530;27;20026;-67
2021/11/09 00:46:39;;;;;;;25.25;14.20;;;;;;;4.55;99.58;101235.13;5133191;27;20057;-68
2021/11/09 00:49:05;;;;;;;21.40;14.55;;;;;;;4.56;99.16;101236.84;5133468;27;20035;-68
2021/11/09 00:51:30;;;;;;;26.17;14.43;;;;;;;4.52;99.57;101236.09;5133251;27;20034;-68
2021/11/09 00:53:56;;;;;;;24.33;14.88;;;;;;;4.53;99.77;101232.53;5133538;27;20027;-68
2021/11/09 00:56:21;;;;;;;22.73;14.50;;;;;;;4.58;100.00;101227.00;5133106;27;20160;-66
2021/11/09 00:58:47;;;;;;;25.05;14.63;;;;;;;4.62;100.00;101244.50;5133591;27;20023;-67
2021/11/09 01:01:12;;;;;;;27.08;15.10;;;;;;;4.62;100.00;101242.69;5133315;27;20022;-67
2021/11/09 01:03:38;;;;;;;30.80;15.25;;;;;;;4.63;100.00;101244.44;5133201;27;20087;-66
2021/11/09 01:06:04;;;;;;;26.92;15.38;;;;;;;4.64;100.00;101239.97;5133145;27;20471;-67
2021/11/09 01:08:30;;;;;;;27.48;15.38;;;;;;;4.64;100.00;101235.53;5131853;27;20045;-67
2021/11/09 01:10:57;;;;;;;26.88;15.00;;;;;;;4.65;100.00;101226.59;5133017;27;20133;-67
2021/11/09 01:13:24;;;;;;;23.85;15.05;;;;;;;4.69;100.00;101229.97;5133063;27;20030;-69
2021/11/09 01:15:52;;;;;;;24.25;14.00;;;;;;;4.71;100.00;101234.28;5130808;27;20031;-66
2021/11/09 01:18:21;;;;;;;22.45;14.07;;;;;;;4.70;100.00;101226.38;5133231;27;20027;-68
2021/11/09 01:20:47;;;;;;;23.20;13.57;;;;;;;4.77;100.00;101229.63;5133150;27;20084;-68
2021/11/09 01:23:13;;;;;;;26.50;12.43;;;;;;;4.78;100.00;101226.00;5132953;27;20023;-67
2021/11/09 01:25:40;;;;;;;23.05;14.18;;;;;;;4.81;100.00;101228.50;5132806;27;20427;-67
2021/11/09 01:28:07;;;;;;;22.00;12.75;;;;;;;4.82;100.00;101232.88;5132934;27;20023;-66
2021/11/09 01:30:33;;;;;;;19.33;12.32;;;;;;;4.83;100.00;101232.81;5132595;27;20027;-66
2021/11/09 01:32:59;;;;;;;21.73;13.75;;;;;;;4.87;100.00;101242.34;5132878;27;20670;-67
2021/11/09 01:35:25;;;;;;;22.00;13.00;;;;;;;4.89;100.00;101237.81;5132517;27;20019;-67
2021/11/09 01:37:51;;;;;;;25.40;13.77;;;;;;;4.92;100.00;101245.66;5131852;27;20038;-68
2021/11/09 01:40:19;;;;;;;22.33;14.13;;;;;;;4.94;100.00;101253.53;5132564;27;20106;-66
2021/11/09 01:42:45;;;;;;;21.83;13.63;;;;;;;4.96;100.00;101263.16;5132461;27;20031;-67
2021/11/09 01:45:12;;;;;;;19.80;13.68;;;;;;;4.97;100.00;101248.94;5132653;27;20015;-67
2021/11/09 01:47:38;;;;;;;19.15;12.32;;;;;;;4.98;100.00;101239.16;5132111;27;20124;-67
2021/11/09 01:50:06;;;;;;;20.52;12.65;;;;;;;4.98;100.00;101245.34;5131510;27;20513;-67
2021/11/09 01:52:32;;;;;;;19.27;12.63;;;;;;;4.95;100.00;101250.81;5128342;27;20034;-66
2021/11/09 01:54:57;;;;;;;19.65;12.40;;;;;;;5.00;100.00;101248.75;5131120;27;20313;-67
2021/11/09 01:57:23;;;;;;;21.67;12.63;;;;;;;5.03;99.36;101250.44;5131014;27;20042;-68
2021/11/09 01:59:49;;;;;;;20.48;12.15;;;;;;;5.00;99.17;101254.09;5130996;27;20057;-68
2021/11/09 02:02:15;;;;;;;19.45;13.32;;;;;;;4.98;99.59;101252.44;5130682;27;20131;-67
2021/11/09 02:04:40;;;;;;;18.05;11.50;;;;;;;4.97;100.00;101259.59;5130219;27;20148;-67
2021/11/09 02:07:06;;;;;;;24.30;13.40;;;;;;;4.93;100.00;101243.84;5129368;27;20503;-67
2021/11/09 02:09:32;;;;;;;20.63;12.45;;;;;;;4.91;100.00;101251.91;5130253;27;20034;-69
2021/11/09 02:11:57;;;;;;;20.80;13.25;;;;;;;4.92;100.00;101258.06;5130350;27;20031;-68
2021/11/09 02:14:23;;;;;;;21.05;12.48;;;;;;;4.90;100.00;101254.66;5130402;27;20034;-68
2021/11/09 02:16:51;;;;;;;23.08;13.23;;;;;;;4.95;100.00;101255.25;5128759;27;20027;-68
2021/11/09 02:19:17;;;;;;;19.73;12.63;;;;;;;4.93;100.00;101254.50;5130316;27;20031;-67
2021/11/09 02:21:43;;;;;;;23.35;13.77;;;;;;;4.93;100.00;101252.66;5130046;27;20026;-67
2021/11/09 02:24:09;;;;;;;25.02;13.93;;;;;;;4.95;100.00;101257.91;5128677;27;20043;-67
2021/11/09 02:26:35;;;;;;;21.88;13.13;;;;;;;4.97;100.00;101261.38;5128782;27;20030;-67
2021/11/09 02:29:01;;;;;;;22.45;13.23;;;;;;;4.97;100.00;101256.94;5130312;27;20027;-68
2021/11/09 02:31:28;;;;;;;20.13;13.30;;;;;;;4.92;100.00;101247.44;5129156;27;20084;-68
2021/11/09 02:33:53;;;;;;;24.98;13.32;;;;;;;4.96;100.00;101252.53;5130246;27;20038;-68
2021/11/09 02:36:19;;;;;;;25.52;13.25;;;;;;;4.95;100.00;101253.47;5128789;27;20391;-67
2021/11/09 02:38:46;;;;;;;23.40;13.80;;;;;;;4.94;100.00;101251.75;5130639;27;20227;-68
2021/11/09 02:41:12;;;;;;;22.88;13.98;;;;;;;4.94;100.00;101256.19;5131462;27;20042;-68
2021/11/09 02:43:38;;;;;;;20.88;14.45;;;;;;;4.91;100.00;101251.91;5131242;27;20122;-67
2021/11/09 02:48:37;;;;;;;23.10;13.90;;;;;;;4.82;99.49;101252.34;5131146;27;20448;-68
2021/11/09 02:51:15;;;;;;;23.60;13.80;;;;;;;4.85;99.05;101262.84;5130059;27;20026;-68
2021/11/09 02:53:53;;;;;;;24.50;14.00;;;;;;;4.82;98.69;101268.31;5131285;27;20023;-68
2021/11/09 02:56:26;;;;;;;19.85;12.52;;;;;;;4.68;98.16;101255.69;5129325;27;20488;-68
2021/11/09 03:01:27;;;;;;;25.20;13.63;;;;;;;4.69;97.87;101284.00;5131295;27;20025;-68
2021/11/09 03:04:05;;;;;;;24.50;13.27;;;;;;;4.64;97.68;101282.47;5131443;27;20428;-67
2021/11/09 03:06:42;;;;;;;21.02;12.68;;;;;;;4.58;97.80;101280.13;5131127;27;20027;-67
2021/11/09 03:09:47;;;;;;;21.75;13.60;;;;;;;4.55;97.44;101286.44;5131191;27;20392;-67
2021/11/09 03:12:03;;;;;;;19.85;13.07;;;;;;;4.48;97.28;101292.97;5127534;28;20039;-67
2021/11/09 03:14:28;;;;;;;20.30;12.85;;;;;;;4.42;97.75;101293.25;5129666;27;20026;-68
2021/11/09 03:16:57;;;;;;;21.95;13.63;;;;;;;4.35;97.18;101297.13;5131349;27;20015;-68
2021/11/09 03:19:37;;;;;;;26.30;13.43;;;;;;;4.29;97.19;101304.56;5129558;28;20030;-68
2021/11/09 03:46:38;;;;;;;19.75;12.80;;;;;;;3.73;97.38;101322.16;5132454;27;20538;-67
2021/11/09 03:49:06;;;;;;;21.67;12.05;;;;;;;3.67;97.64;101325.94;5134645;27;20403;-68
2021/11/09 03:51:33;;;;;;;23.17;12.80;;;;;;;3.65;97.69;101334.91;5132008;27;20114;-68
2021/11/09 03:54:01;;;;;;;21.98;13.70;;;;;;;3.56;97.50;101330.84;5132457;27;20035;-67
2021/11/09 03:56:38;;;;;;;21.48;13.30;;;;;;;3.51;97.22;101324.88;5134112;27;20023;-66
2021/11/09 03:59:09;;;;;;;19.00;13.02;;;;;;;3.46;97.66;101318.91;5134324;27;20046;-67
2021/11/09 04:01:43;;;;;;;22.02;13.32;;;;;;;3.45;97.60;101327.78;5134252;27;20744;-67
2021/11/09 04:06:42;;;;;;;21.55;13.43;;;;;;;3.40;97.36;101328.91;5134157;27;20027;-67
2021/11/09 04:09:17;;;;;;;23.30;13.43;;;;;;;3.38;98.15;101342.22;5133758;27;20019;-67
2021/11/09 04:14:23;;;;;;;20.13;13.23;;;;;;;3.34;97.58;101345.94;5134320;27;20019;-67
2021/11/09 04:19:22;;;;;;;21.83;13.27;;;;;;;3.23;97.04;101340.25;5134249;27;20011;-67
2021/11/09 04:29:52;;;;;;;22.88;13.05;;;;;;;3.16;97.36;101352.00;5134112;27;20444;-67
2021/11/09 05:09:41;;;;;;;20.95;13.80;;;;;;;2.66;96.70;101410.56;5132473;27;20090;-67
2021/11/09 05:12:07;;;;;;;23.33;13.18;;;;;;;2.62;97.31;101416.91;5132300;27;20043;-67
2021/11/09 05:14:33;;;;;;;22.70;13.10;;;;;;;2.55;97.69;101408.34;5132151;27;20023;-68
2021/11/09 05:17:00;;;;;;;20.48;13.80;;;;;;;2.54;97.53;101413.69;5130875;27;20164;-67
2021/11/09 05:19:26;;;;;;;27.30;13.60;;;;;;;2.54;97.22;101424.28;5131030;27;20027;-68
2021/11/09 05:21:51;;;;;;;24.83;14.20;;;;;;;2.50;97.35;101417.34;5131901;27;20027;-68
2021/11/09 05:24:17;;;;;;;25.70;13.95;;;;;;;2.50;97.55;101439.41;5131974;27;20030;-68
2021/11/09 05:26:43;;;;;;;24.92;13.25;;;;;;;2.51;97.69;101451.72;5131853;27;20443;-69
2021/11/09 05:29:10;;;;;;;21.17;13.95;;;;;;;2.43;97.94;101448.50;5130889;27;20391;-68
2021/11/09 05:31:35;;;;;;;23.98;14.27;;;;;;;2.46;97.81;101459.00;5131818;27;20386;-68
2021/11/09 05:34:02;;;;;;;24.30;13.70;;;;;;;2.42;97.83;101457.38;5131790;27;20084;-68
2021/11/09 05:36:33;;;;;;;20.10;13.75;;;;;;;2.39;97.24;101452.19;5131858;27;20042;-68
2021/11/09 05:39:09;;;;;;;24.80;14.32;;;;;;;2.38;97.16;101462.84;5132015;27;20033;-68
2021/11/09 05:41:38;;;;;;;20.73;13.63;;;;;;;2.39;97.28;101463.63;5131297;27;20043;-67
2021/11/09 05:44:04;;;;;;;23.48;14.70;;;;;;;2.41;97.34;101475.97;5131786;27;20031;-68
2021/11/09 05:46:30;;;;;;;20.00;13.50;;;;;;;2.37;97.20;101480.50;5130366;27;20027;-67
2021/11/09 05:48:56;;;;;;;22.55;13.95;;;;;;;2.42;97.34;101490.91;5132100;27;20019;-66
2021/11/09 05:51:23;;;;;;;25.25;14.52;;;;;;;2.38;97.39;101491.97;5130959;27;20079;-68
2021/11/09 05:53:48;;;;;;;29.55;16.20;;;;;;;2.36;97.50;101500.78;5129310;27;20383;-69
2021/11/09 05:56:14;;;;;;;23.20;15.57;;;;;;;2.38;97.83;101513.97;5131653;27;20034;-69
2021/11/09 05:58:40;;;;;;;25.55;15.27;;;;;;;2.39;97.83;101515.72;5131628;27;20041;-68
2021/11/09 06:01:06;;;;;;;25.80;15.50;;;;;;;2.36;97.84;101521.97;5131381;27;20088;-67
2021/11/09 06:03:31;;;;;;;24.55;15.50;;;;;;;2.38;98.05;101528.09;5131503;27;20356;-68
2021/11/09 06:05:57;;;;;;;30.67;17.33;;;;;;;2.34;98.11;101523.81;5130790;27;20074;-67
2021/11/09 06:08:23;;;;;;;26.90;16.33;;;;;;;2.36;98.65;101537.00;5131585;27;20031;-68
2021/11/09 06:10:49;;;;;;;24.90;15.95;;;;;;;2.39;99.09;101539.56;5131522;27;20344;-67
2021/11/09 06:13:15;;;;;;;24.23;14.45;;;;;;;2.42;99.22;101541.22;5131800;27;20022;-67
2021/11/09 06:15:42;;;;;;;23.48;16.33;;;;;;;2.42;98.95;101552.69;5130713;27;20399;-68
2021/11/09 06:18:08;;;;;;;27.42;16.88;;;;;;;2.41;98.76;101544.78;5131107;27;20023;-68
2021/11/09 06:20:34;;;;;;;24.48;16.27;;;;;;;2.42;98.28;101564.13;5129090;27;20035;-66
2021/11/09 06:23:00;;;;;;;28.55;19.27;;;;;;;2.38;98.16;101562.50;5129686;27;20034;-67
2021/11/09 06:25:26;;;;;;;33.20;20.33;;;;;;;2.45;98.16;101583.47;5130850;27;20394;-67
2021/11/09 06:27:52;;;;;;;35.67;21.45;;;;;;;2.41;98.20;101581.84;5130559;27;20034;-67
2021/11/09 06:30:19;;;;;;;41.72;26.25;;;;;;;2.46;98.36;101601.06;5131206;27;20047;-68
2021/11/09 06:32:44;;;;;;;53.42;30.52;;;;;;;2.49;99.54;101607.16;5131172;27;20467;-67
2021/11/09 06:35:10;;;;;;;55.20;31.55;;;;;;;2.51;99.74;101607.09;5130958;27;20027;-68
2021/11/09 06:37:36;;;;;;;50.70;30.55;;;;;;;2.51;100.00;101613.22;5131167;27;20030;-67
2021/11/09 06:40:04;;;;;;;54.22;32.35;;;;;;;2.51;100.00;101615.03;5128677;27;20023;-67
2021/11/09 06:42:30;;;;;;;47.83;28.25;;;;;;;2.57;100.00;101617.47;5131383;27;20023;-66
2021/11/09 06:44:56;;;;;;;47.30;27.27;;;;;;;2.61;100.00;101622.59;5131196;27;20520;-67
2021/11/09 06:47:21;;;;;;;42.83;24.00;;;;;;;2.68;100.00;101623.25;5131163;27;20031;-67
2021/11/09 06:49:47;;;;;;;39.47;21.92;;;;;;;2.75;100.00;101638.88;5130740;27;20053;-67
2021/11/09 06:52:14;;;;;;;34.53;19.85;;;;;;;2.82;100.00;101628.94;5129944;27;20070;-68
2021/11/09 06:54:40;;;;;;;42.88;19.42;;;;;;;2.85;100.00;101627.03;5130840;27;20023;-67
2021/11/09 06:57:06;;;;;;;33.50;18.50;;;;;;;3.00;100.00;101646.84;5131250;27;20026;-68
2021/11/09 06:59:31;;;;;;;26.85;16.08;;;;;;;3.08;100.00;101642.97;5131018;27;20106;-68
2021/11/09 07:01:58;;;;;;;25.23;15.25;;;;;;;3.16;100.00;101653.31;5131171;27;20873;-67
2021/11/09 07:04:23;;;;;;;25.00;15.65;;;;;;;3.26;100.00;101655.56;5131186;27;20058;-67
2021/11/09 07:06:49;;;;;;;22.17;14.10;;;;;;;3.38;100.00;101664.84;5131125;27;20031;-67
2021/11/09 07:09:16;;;;;;;23.90;15.07;;;;;;;3.48;100.00;101671.56;5131143;27;20027;-67
2021/11/09 07:11:42;;;;;;;27.52;17.40;;;;;;;3.58;100.00;101679.09;5130771;27;20083;-67
2021/11/09 07:14:08;;;;;;;30.20;16.55;;;;;;;3.68;100.00;101684.94;5129627;28;20514;-68
2021/11/09 07:16:34;;;;;;;23.77;16.02;;;;;;;3.80;100.00;101679.13;5130332;27;20519;-68
2021/11/09 07:19:02;;;;;;;27.52;17.58;;;;;;;3.91;100.00;101687.56;5134903;27;20046;-67
2021/11/09 07:21:28;;;;;;;26.83;16.35;;;;;;;3.97;100.00;101692.66;5135218;27;20563;-68
2021/11/09 07:23:54;;;;;;;27.65;17.05;;;;;;;4.06;100.00;101694.91;5135081;27;20039;-69
2021/11/09 07:26:20;;;;;;;31.42;16.42;;;;;;;4.14;100.00;101698.16;5133904;27;20023;-68
2021/11/09 07:29:27;;;;;;;24.98;15.40;;;;;;;4.24;100.00;101702.16;5134352;27;20031;-68
2021/11/09 07:31:55;;;;;;;26.55;15.38;;;;;;;4.30;100.00;101701.94;5010859;28;20517;-70
2021/11/09 07:34:21;;;;;;;28.73;15.60;;;;;;;4.38;100.00;101708.66;5012833;28;20017;-70
2021/11/09 07:36:46;;;;;;;22.20;16.00;;;;;;;4.49;100.00;101705.56;5027835;28;20033;-70
2021/11/09 07:39:12;;;;;;;24.15;16.15;;;;;;;4.56;100.00;101705.25;5012630;28;20063;-71
2021/11/09 07:41:40;;;;;;;25.85;16.77;;;;;;;4.63;100.00;101709.38;5027670;28;20022;-71
2021/11/09 07:44:08;;;;;;;24.80;15.82;;;;;;;4.73;100.00;101717.84;5027587;28;20036;-71
2021/11/09 07:46:37;;;;;;;25.33;16.40;;;;;;;4.80;100.00;101718.47;5012338;28;20026;-71
2021/11/09 07:49:03;;;;;;;24.42;16.60;;;;;;;4.91;100.00;101733.03;5027746;28;20030;-70
2021/11/09 07:51:29;;;;;;;30.48;18.10;;;;;;;4.98;100.00;101729.16;5015653;28;20115;-71
2021/11/09 07:53:57;;;;;;;28.75;16.67;;;;;;;5.06;100.00;101732.34;5012908;28;20041;-70
2021/11/09 07:56:26;;;;;;;27.25;17.17;;;;;;;5.11;100.00;101726.84;5011274;28;20025;-71
2021/11/09 07:59:04;;;;;;;24.67;17.27;;;;;;;5.19;100.00;101717.59;5012082;28;20056;-70
2021/11/09 08:01:41;;;;;;;25.80;17.20;;;;;;;5.29;100.00;101729.56;5012399;28;20101;-71
2021/11/09 08:04:14;;;;;;;30.85;18.42;;;;;;;5.38;100.00;101731.81;5027327;28;20500;-70
2021/11/09 08:09:12;;;;;;;33.20;18.35;;;;;;;5.51;100.00;101733.00;5011906;28;20160;-71
2021/11/09 08:11:41;;;;;;;30.20;18.55;;;;;;;5.62;100.00;101740.53;5027311;28;20026;-70
2021/11/09 08:14:10;;;;;;;30.27;18.67;;;;;;;5.67;100.00;101734.06;4999160;28;20469;-70
2021/11/09 08:16:36;;;;;;;30.33;19.33;;;;;;;5.76;100.00;101735.44;5027006;28;20087;-69
2021/11/09 08:19:02;;;;;;;30.48;19.88;;;;;;;5.85;100.00;101741.25;5027292;28;20034;-69
2021/11/09 08:21:27;;;;;;;40.53;21.48;;;;;;;5.94;100.00;101727.50;5011550;28;20037;-70
2021/11/09 08:23:53;;;;;;;36.83;20.48;;;;;;;6.04;100.00;101747.47;5011436;28;20026;-69
2021/11/09 08:26:22;;;;;;;34.30;20.67;;;;;;;6.15;100.00;101753.13;5026937;28;20025;-69
2021/11/09 08:28:49;;;;;;;34.28;21.40;;;;;;;6.27;100.00;101754.34;5010226;28;20474;-69
2021/11/09 08:31:18;;;;;;;37.85;22.80;;;;;;;6.33;100.00;101749.63;5011348;28;20052;-70
2021/11/09 08:33:44;;;;;;;35.50;22.67;;;;;;;6.45;100.00;101758.81;5012114;28;20017;-69
2021/11/09 08:36:14;;;;;;;39.25;21.90;;;;;;;6.56;100.00;101773.38;5026340;28;20048;-69
2021/11/09 08:38:41;;;;;;;42.53;24.42;;;;;;;6.69;100.00;101778.94;5026536;28;20018;-70
2021/11/09 08:41:08;;;;;;;50.35;25.95;;;;;;;6.79;100.00;101774.91;5011263;28;20132;-68
2021/11/09 08:54:10;;;;;;;51.17;29.67;;;;;;;7.35;100.00;101801.41;5035107;22;20129;-70
2021/11/09 08:56:54;;;;;;;51.05;30.67;;;;;;;7.34;100.00;101783.66;5067834;28;20403;-70
2021/11/09 09:04:50;;;;;;;52.28;31.65;;;;;;;7.76;100.00;101816.13;5072047;28;20097;-70
2021/11/09 09:07:16;;;;;;;46.17;30.52;;;;;;;7.85;100.00;101816.53;5050867;28;20037;-69
2021/11/09 09:10:14;;;;;;;58.20;30.92;;;;;;;7.95;100.00;101824.91;5053929;28;20067;-69
2021/11/09 09:12:42;;;;;;;50.30;30.60;;;;;;;8.03;100.00;101823.56;5069191;28;20025;-69
2021/11/09 09:15:11;;;;;;;51.03;28.27;;;;;;;8.12;100.00;101827.53;5071520;28;20090;-70
2021/11/09 09:17:37;;;;;;;51.45;29.95;;;;;;;8.20;99.68;101825.34;5072052;28;20082;-69
2021/11/09 09:20:14;;;;;;;50.55;28.42;;;;;;;8.25;99.11;101823.28;5071734;28;20027;-69
2021/11/09 09:22:47;;;;;;;44.00;26.70;;;;;;;8.36;98.42;101832.47;5072042;28;20032;-69
2021/11/09 09:30:32;;;;;;;44.38;27.67;;;;;;;8.62;97.04;101833.72;5072152;28;20059;-69
2021/11/09 09:33:29;;;;;;;42.28;26.20;;;;;;;8.74;96.56;101833.03;5071727;28;20028;-69
2021/11/09 09:52:11;;;;;;;39.67;24.52;;;;;;;8.93;95.57;101850.63;5071490;28;20032;-71
2021/11/09 09:55:22;;;;;;;35.30;22.80;;;;;;;9.49;91.33;101849.16;5068170;28;20435;-71
2021/11/09 09:57:49;;;;;;;40.25;23.48;;;;;;;9.55;89.21;101859.50;5069441;28;20111;-70
2021/11/09 10:00:15;;;;;;;39.88;23.20;;;;;;;9.64;88.60;101865.16;5070275;28;20111;-70
2021/11/09 10:03:07;;;;;;;40.47;24.92;;;;;;;9.69;87.61;101852.38;5070250;28;20472;-71
2021/11/09 10:05:38;;;;;;;46.40;25.27;;;;;;;9.75;87.04;101862.72;5066372;28;20068;-70
2021/11/09 10:08:11;;;;;;;37.90;23.75;;;;;;;9.78;86.24;101862.56;5068580;28;20028;-69
2021/11/09 10:10:38;;;;;;;40.38;23.70;;;;;;;9.81;86.02;101866.84;5050130;28;20492;-70
2021/11/09 10:13:10;;;;;;;37.25;22.95;;;;;;;9.88;86.00;101861.03;5070087;28;20105;-70
2021/11/09 10:15:39;;;;;;;36.17;22.75;;;;;;;9.95;84.17;101866.88;5069908;28;20500;-70
2021/11/09 10:18:10;;;;;;;36.78;24.58;;;;;;;10.07;84.60;101863.50;5069800;28;20371;-71
2021/11/09 10:20:49;;;;;;;41.17;25.65;;;;;;;10.12;85.22;101862.25;5069170;28;20074;-71
2021/11/09 10:23:19;;;;;;;39.67;24.70;;;;;;;10.20;85.29;101862.66;5051962;28;20479;-71
2021/11/09 10:25:46;;;;;;;43.65;24.85;;;;;;;10.26;85.24;101864.97;5047346;28;20488;-71
2021/11/09 10:28:21;;;;;;;38.55;23.58;;;;;;;10.35;83.78;101872.41;5068829;28;20028;-69
2021/11/09 10:30:54;;;;;;;35.38;22.58;;;;;;;10.46;83.10;101871.75;5048212;28;20457;-70
2021/11/09 10:33:24;;;;;;;31.75;21.23;;;;;;;10.53;81.64;101879.31;5048377;28;20542;-70
2021/11/09 10:35:49;;;;;;;32.30;21.33;;;;;;;10.59;80.67;101881.63;5048370;28;20124;-69
2021/11/09 10:38:15;;;;;;;28.65;19.85;;;;;;;10.66;78.86;101888.31;5049960;28;20060;-71
2021/11/09 10:40:51;;;;;;;30.80;19.42;;;;;;;10.73;77.72;101894.16;5048169;28;20037;-70
2021/11/09 10:43:21;;;;;;;30.52;20.02;;;;;;;10.74;77.11;101882.47;5049874;28;20385;-70
2021/11/09 10:45:47;;;;;;;30.45;20.20;;;;;;;10.76;77.15;101885.91;5050163;28;20115;-70
2021/11/09 10:48:15;;;;;;;34.08;22.27;;;;;;;10.77;77.65;101885.81;5048136;28;20036;-71
2021/11/09 10:50:43;;;;;;;34.58;21.70;;;;;;;10.84;78.10;101884.44;5049430;28;20477;-70
2021/11/09 10:53:19;;;;;;;31.10;19.92;;;;;;;10.90;78.06;101889.44;5048755;28;20485;-70
2021/11/09 11:04:11;;;;;;;27.90;18.05;;;;;;;11.05;74.90;101888.44;5069251;28;20029;-71
2021/11/09 11:06:38;;;;;;;34.60;20.17;;;;;;;11.08;74.48;101882.88;5069419;28;20103;-70
2021/11/09 11:09:08;;;;;;;29.40;19.60;;;;;;;11.11;75.36;101889.88;5051147;28;20020;-70
2021/11/09 11:11:38;;;;;;;35.67;20.90;;;;;;;11.10;74.08;101880.94;5069450;28;20479;-70
2021/11/09 11:14:09;;;;;;;34.38;19.85;;;;;;;11.14;74.27;101893.22;5069465;28;20585;-71
2021/11/09 11:16:44;;;;;;;31.80;18.85;;;;;;;11.15;73.94;101894.94;5051178;28;20081;-69
2021/11/09 11:19:17;;;;;;;30.65;18.90;;;;;;;11.18;74.20;101894.75;5051288;28;20484;-70
2021/11/09 11:21:43;;;;;;;30.45;19.38;;;;;;;11.17;74.12;101890.34;5051114;28;20589;-70
2021/11/09 11:24:10;;;;;;;26.15;16.95;;;;;;;11.22;73.85;101892.69;5069197;28;20052;-69
2021/11/09 11:26:38;;;;;;;25.50;16.77;;;;;;;11.18;73.69;101884.00;5051212;28;20031;-71
2021/11/09 11:29:04;;;;;;;24.83;16.67;;;;;;;11.26;72.69;101892.41;5069098;28;20037;-70
2021/11/09 11:31:30;;;;;;;27.92;16.75;;;;;;;11.32;71.99;101889.31;5069065;28;20041;-70
2021/11/09 11:33:56;;;;;;;21.42;15.02;;;;;;;11.37;72.06;101895.25;5069013;28;20032;-70
2021/11/09 11:36:22;;;;;;;24.25;13.57;;;;;;;11.35;71.21;101891.81;5069375;28;20024;-70
2021/11/09 11:38:50;;;;;;;19.13;12.85;;;;;;;11.38;70.65;101885.34;5067865;28;20032;-70
2021/11/09 11:41:16;;;;;;;14.63;9.77;;;;;;;11.41;69.30;101894.09;5068244;28;20060;-70
2021/11/09 11:43:47;;;;;;;17.27;10.75;;;;;;;11.40;67.61;101892.38;5068101;28;20032;-70
2021/11/09 11:46:32;;;;;;;21.92;14.02;;;;;;;11.40;68.53;101900.44;5051257;28;20119;-71
2021/11/09 11:48:59;;;;;;;23.00;15.27;;;;;;;11.43;69.39;101902.03;5051232;28;20037;-69
2021/11/09 11:51:26;;;;;;;24.70;16.52;;;;;;;11.40;69.86;101889.69;5069339;28;20020;-69
2021/11/09 11:53:54;;;;;;;24.10;15.20;;;;;;;11.46;70.59;101913.47;5068902;28;20056;-70
2021/11/09 11:56:44;;;;;;;25.90;16.10;;;;;;;11.51;70.80;101914.00;5069516;28;20373;-71
2021/11/09 11:59:40;;;;;;;27.83;16.70;;;;;;;11.53;70.20;101912.09;5059865;28;20064;-72
2021/11/09 12:02:08;;;;;;;26.65;16.40;;;;;;;11.55;70.52;101918.22;5069139;28;20557;-71
2021/11/09 12:04:51;;;;;;;24.20;16.38;;;;;;;11.60;69.84;101912.53;5070335;28;20064;-71
2021/11/09 12:07:19;;;;;;;22.83;15.73;;;;;;;11.57;70.35;101910.91;5055068;28;20028;-71
2021/11/09 12:10:06;;;;;;;23.15;16.27;;;;;;;11.59;70.06;101916.19;5072815;28;20021;-71
2021/11/09 12:12:33;;;;;;;18.02;11.82;;;;;;;11.58;68.35;101931.44;5072953;28;20024;-69
2021/11/09 12:15:07;;;;;;;17.58;9.90;;;;;;;11.55;66.26;101933.50;5072593;28;20035;-71
2021/11/09 12:17:39;;;;;;;23.40;14.35;;;;;;;11.57;66.84;101943.16;5072725;28;20017;-71
2021/11/09 12:20:07;;;;;;;18.17;11.65;;;;;;;11.55;67.24;101933.50;5072485;28;20110;-70
2021/11/09 12:22:43;;;;;;;18.73;11.55;;;;;;;11.57;66.53;101939.59;5073041;28;20021;-70
2021/11/09 12:25:11;;;;;;;19.40;12.43;;;;;;;11.57;66.21;101932.41;5072834;28;20048;-71
2021/11/09 12:27:46;;;;;;;17.95;11.13;;;;;;;11.61;66.28;101934.91;5073261;28;20099;-71
2021/11/09 12:30:12;;;;;;;25.63;13.48;;;;;;;11.62;66.17;101926.78;5073091;28;20488;-71
2021/11/09 12:32:42;;;;;;;18.67;12.85;;;;;;;11.63;66.22;101938.38;5072974;28;20037;-72
2021/11/09 12:35:24;;;;;;;19.58;11.27;;;;;;;11.65;66.92;101940.00;5072934;28;20026;-71
2021/11/09 12:38:02;;;;;;;16.38;10.15;;;;;;;11.65;65.55;101931.06;5073137;28;20017;-71
2021/11/09 12:40:46;;;;;;;25.00;15.43;;;;;;;11.66;67.63;101941.72;5073171;28;20029;-69
2021/11/09 12:43:17;;;;;;;20.77;13.32;;;;;;;11.69;68.02;101935.28;5073450;28;20109;-70
2021/11/09 12:46:06;;;;;;;23.85;13.52;;;;;;;11.70;68.74;101937.84;5055575;28;20066;-70
2021/11/09 12:48:38;;;;;;;22.08;12.02;;;;;;;11.72;67.42;101946.69;5072928;28;20551;-71
2021/11/09 12:51:05;;;;;;;19.50;13.98;;;;;;;11.73;67.57;101934.13;5072649;28;20530;-71
2021/11/09 12:53:34;;;;;;;33.45;22.92;;;;;;;11.87;72.79;101952.88;5054439;28;20059;-70
2021/11/09 12:56:03;;;;;;;32.05;19.90;;;;;;;11.83;73.90;101948.69;5073228;28;20044;-71
2021/11/09 12:58:37;;;;;;;33.90;21.27;;;;;;;11.87;73.39;101952.88;5072796;28;20043;-70
2021/11/09 13:03:58;;;;;;;35.17;22.92;;;;;;;11.87;74.71;101950.19;5073442;28;20097;-71
2021/11/09 13:09:27;;;;;;;38.65;23.40;;;;;;;11.87;75.51;101956.44;5051242;28;20480;-70
2021/11/09 13:12:03;;;;;;;37.72;23.55;;;;;;;11.89;75.46;101973.31;5072104;28;20047;-70
2021/11/09 13:14:50;;;;;;;37.05;23.45;;;;;;;11.89;76.20;101972.44;5054084;28;20032;-69
2021/11/09 13:17:22;;;;;;;37.90;24.48;;;;;;;11.90;76.46;101971.50;5072133;28;20031;-70
2021/11/09 13:20:14;;;;;;;31.95;22.95;;;;;;;11.90;76.84;101974.19;5071810;28;20031;-70
2021/11/09 13:23:03;;;;;;;32.42;22.02;;;;;;;11.90;76.64;101984.94;5072480;28;20081;-70
2021/11/09 13:25:43;;;;;;;33.17;22.02;;;;;;;11.89;76.98;101983.19;5071845;28;20024;-70
2021/11/09 13:28:11;;;;;;;37.00;23.90;;;;;;;11.90;77.14;101984.94;5053721;28;20369;-70
2021/11/09 13:30:37;;;;;;;34.83;23.25;;;;;;;11.81;76.41;101974.78;5071820;28;20488;-70
2021/11/09 13:33:03;;;;;;;36.15;23.67;;;;;;;11.86;76.72;101986.94;5071728;28;20039;-70
2021/11/09 13:35:36;;;;;;;33.75;22.65;;;;;;;11.87;76.22;101998.56;5071425;28;20033;-70
2021/11/09 13:38:11;;;;;;;34.20;22.55;;;;;;;11.85;76.47;101997.81;5071385;28;20032;-70
2021/11/09 13:40:49;;;;;;;34.35;21.88;;;;;;;11.81;76.74;102001.66;5071604;28;20123;-70